Time,TemperatureF,DewpointF,PressureIn,WindDirection,WindDirectionDegrees,WindSpeedMPH,WindSpeedGustMPH,Humidity,HourlyPrecipIn,Conditions,Clouds,dailyrainin,SoftwareType,DateUTC
2013-05-04 00:00:00,33.8,31.1,30.36,North,0,0.9,0.9,90,0.00,,,0.00,WUHU216HW,2013-05-04 05:00:00,
2013-05-04 00:05:00,33.8,31.1,30.36,North,0,0.9,0.9,90,0.00,,,0.00,WUHU216HW,2013-05-04 05:05:00,
2013-05-04 00:30:00,33.8,31.1,30.35,North,0,1.1,1.1,90,0.00,,,0.00,WUHU216HW,2013-05-04 05:30:00,
2013-05-04 00:35:00,33.8,31.1,30.35,North,0,1.1,1.1,90,0.00,,,0.00,WUHU216HW,2013-05-04 05:35:00,
2013-05-04 01:00:00,33.8,31.4,30.35,North,0,0.4,0.4,91,0.00,,,0.00,WUHU216HW,2013-05-04 06:00:00,
2013-05-04 01:05:00,33.8,31.4,30.35,North,0,0.4,0.4,91,0.00,,,0.00,WUHU216HW,2013-05-04 06:05:00,
2013-05-04 01:30:00,34.0,31.3,30.35,North,0,0.4,0.4,90,0.00,,,0.00,WUHU216HW,2013-05-04 06:30:00,
2013-05-04 01:35:00,34.0,31.3,30.35,North,0,0.4,0.4,90,0.00,,,0.00,WUHU216HW,2013-05-04 06:35:00,
2013-05-04 02:00:00,34.0,31.3,30.34,North,0,0.4,0.4,90,0.00,,,0.00,WUHU216HW,2013-05-04 07:00:00,
2013-05-04 02:05:00,34.0,31.3,30.34,North,0,0.4,0.4,90,0.00,,,0.00,WUHU216HW,2013-05-04 07:05:00,
2013-05-04 02:30:00,34.2,31.5,30.34,North,0,0.7,0.7,90,0.00,,,0.00,WUHU216HW,2013-05-04 07:30:00,
2013-05-04 02:35:00,34.2,31.5,30.34,North,0,0.7,0.7,90,0.00,,,0.00,WUHU216HW,2013-05-04 07:35:00,
2013-05-04 03:00:00,34.2,31.5,30.33,North,0,0.9,0.9,90,0.00,,,0.00,WUHU216HW,2013-05-04 08:00:00,
2013-05-04 03:05:00,34.2,31.5,30.33,North,0,0.9,0.9,90,0.00,,,0.00,WUHU216HW,2013-05-04 08:05:00,
2013-05-04 03:30:00,34.2,31.5,30.33,North,0,0.7,0.7,90,0.00,,,0.00,WUHU216HW,2013-05-04 08:30:00,
2013-05-04 03:35:00,34.2,31.5,30.33,North,0,0.7,0.7,90,0.00,,,0.00,WUHU216HW,2013-05-04 08:35:00,
2013-05-04 04:00:00,34.2,31.8,30.34,North,0,0.4,0.4,91,0.00,,,0.00,WUHU216HW,2013-05-04 09:00:00,
2013-05-04 04:05:00,34.2,31.8,30.34,North,0,0.4,0.4,91,0.00,,,0.00,WUHU216HW,2013-05-04 09:05:00,
2013-05-04 04:30:00,34.2,31.8,30.33,NNW,338,0.7,0.7,91,0.00,,,0.00,WUHU216HW,2013-05-04 09:30:00,
2013-05-04 04:35:00,34.2,31.8,30.33,NNW,338,0.7,0.7,91,0.00,,,0.00,WUHU216HW,2013-05-04 09:35:00,
2013-05-04 05:00:00,34.2,31.8,30.33,North,0,0.0,0.0,91,0.00,,,0.00,WUHU216HW,2013-05-04 10:00:00,
2013-05-04 05:05:00,34.2,31.8,30.33,North,0,0.0,0.0,91,0.00,,,0.00,WUHU216HW,2013-05-04 10:05:00,
2013-05-04 05:30:00,34.2,31.8,30.34,North,0,0.4,0.4,91,0.00,,,0.00,WUHU216HW,2013-05-04 10:30:00,
2013-05-04 05:35:00,34.2,31.8,30.34,North,0,0.4,0.4,91,0.00,,,0.00,WUHU216HW,2013-05-04 10:35:00,
2013-05-04 06:00:00,34.2,31.8,30.35,North,0,0.4,0.4,91,0.00,,,0.00,WUHU216HW,2013-05-04 11:00:00,
2013-05-04 06:05:00,34.2,31.8,30.35,North,0,0.4,0.4,91,0.00,,,0.00,WUHU216HW,2013-05-04 11:05:00,
2013-05-04 06:30:00,34.2,31.8,30.35,NE,45,0.7,0.7,91,0.00,,,0.00,WUHU216HW,2013-05-04 11:30:00,
2013-05-04 06:35:00,34.2,31.8,30.35,NE,45,0.7,0.7,91,0.00,,,0.00,WUHU216HW,2013-05-04 11:35:00,
2013-05-04 07:00:00,34.2,32.0,30.36,NNE,23,1.1,1.1,92,0.00,,,0.00,WUHU216HW,2013-05-04 12:00:00,
2013-05-04 07:05:00,34.2,32.0,30.36,NNE,23,1.1,1.1,92,0.00,,,0.00,WUHU216HW,2013-05-04 12:05:00,
2013-05-04 07:30:00,34.6,32.4,30.37,NE,45,0.2,0.2,92,0.01,,,0.00,WUHU216HW,2013-05-04 12:30:00,
2013-05-04 07:35:00,34.6,32.4,30.37,NE,45,0.2,0.2,92,0.01,,,0.00,WUHU216HW,2013-05-04 12:35:00,
2013-05-04 08:00:00,35.5,33.3,30.37,NNE,23,0.7,0.7,92,0.02,,,0.01,WUHU216HW,2013-05-04 13:00:00,
2013-05-04 08:03:00,35.5,33.3,30.37,NNE,23,0.7,0.7,92,0.01,,,0.02,WUHU216HW,2013-05-04 13:03:00,
2013-05-04 08:08:00,35.5,33.3,30.37,NNE,23,0.7,0.7,92,0.01,,,0.02,WUHU216HW,2013-05-04 13:08:00,
2013-05-04 08:30:00,36.5,34.1,30.38,NNE,23,0.4,0.4,91,0.03,,,0.02,WUHU216HW,2013-05-04 13:30:00,
2013-05-04 08:35:00,36.5,34.1,30.38,NNE,23,0.4,0.4,91,0.03,,,0.02,WUHU216HW,2013-05-04 13:35:00,
2013-05-04 09:00:00,37.3,34.6,30.38,NE,45,1.3,1.3,90,0.04,,,0.04,WUHU216HW,2013-05-04 14:00:00,
2013-05-04 09:05:00,37.3,34.6,30.38,NE,45,1.3,1.3,90,0.04,,,0.06,WUHU216HW,2013-05-04 14:05:00,
2013-05-04 09:10:00,37.3,34.6,30.38,NE,45,1.3,1.3,90,0.04,,,0.06,WUHU216HW,2013-05-04 14:10:00,
2013-05-04 09:30:00,38.7,36.0,30.38,North,0,0.4,0.4,90,0.04,,,0.06,WUHU216HW,2013-05-04 14:30:00,
2013-05-04 09:35:00,38.7,36.0,30.38,North,0,0.4,0.4,90,0.04,,,0.06,WUHU216HW,2013-05-04 14:35:00,
2013-05-04 10:00:00,39.8,36.8,30.38,NE,45,0.9,0.9,89,0.04,,,0.08,WUHU216HW,2013-05-04 15:00:00,
2013-05-04 10:05:00,39.8,36.8,30.38,NE,45,0.9,0.9,89,0.04,,,0.10,WUHU216HW,2013-05-04 15:05:00,
2013-05-04 10:10:00,39.8,36.8,30.38,NE,45,0.9,0.9,89,0.04,,,0.10,WUHU216HW,2013-05-04 15:10:00,
2013-05-04 10:30:00,41.2,37.6,30.38,NNE,23,2.0,2.0,87,0.05,,,0.10,WUHU216HW,2013-05-04 15:30:00,
2013-05-04 10:35:00,41.2,37.6,30.38,NNE,23,2.0,2.0,87,0.05,,,0.10,WUHU216HW,2013-05-04 15:35:00,
2013-05-04 11:00:00,42.5,38.5,30.38,NE,45,2.2,2.2,86,0.06,,,0.13,WUHU216HW,2013-05-04 16:00:00,
2013-05-04 11:05:00,42.5,38.5,30.38,NE,45,2.2,2.2,86,0.06,,,0.17,WUHU216HW,2013-05-04 16:05:00,
2013-05-04 11:10:00,42.5,38.5,30.38,NE,45,2.2,2.2,86,0.06,,,0.17,WUHU216HW,2013-05-04 16:10:00,
2013-05-04 11:30:00,45.0,40.1,30.38,East,90,1.6,1.6,83,0.07,,,0.17,WUHU216HW,2013-05-04 16:30:00,
2013-05-04 11:35:00,45.0,40.1,30.38,East,90,1.6,1.6,83,0.07,,,0.17,WUHU216HW,2013-05-04 16:35:00,
2013-05-04 12:00:00,46.6,40.5,30.38,East,90,2.5,2.5,79,0.08,,,0.20,WUHU216HW,2013-05-04 17:00:00,
2013-05-04 12:05:00,46.6,40.5,30.38,East,90,1.8,2.5,79,0.08,,,0.24,WUHU216HW,2013-05-04 17:05:00,
2013-05-04 12:10:00,46.6,40.5,30.38,East,90,1.8,1.8,79,0.08,,,0.24,WUHU216HW,2013-05-04 17:10:00,
2013-05-04 12:30:00,49.0,42.0,30.38,East,90,2.5,2.5,77,0.08,,,0.26,WUHU216HW,2013-05-04 17:30:00,
2013-05-04 12:35:00,49.0,42.0,30.38,East,90,2.5,2.5,77,0.08,,,0.26,WUHU216HW,2013-05-04 17:35:00,
2013-05-04 13:00:00,52.6,44.6,30.37,East,90,1.3,1.3,74,0.05,,,0.29,WUHU216HW,2013-05-04 18:00:00,
2013-05-04 13:05:00,52.6,44.6,30.37,East,90,1.3,1.3,74,0.05,,,0.29,WUHU216HW,2013-05-04 18:05:00,
2013-05-04 13:30:00,55.1,45.9,30.36,North,0,1.1,1.1,71,0.01,,,0.30,WUHU216HW,2013-05-04 18:30:00,
2013-05-04 13:35:00,55.1,45.9,30.36,North,0,1.1,1.1,71,0.01,,,0.30,WUHU216HW,2013-05-04 18:35:00,
2013-05-04 14:00:00,60.1,48.3,30.35,NNE,23,1.1,1.1,65,0.00,,,0.30,WUHU216HW,2013-05-04 19:00:00,
2013-05-04 14:05:00,60.1,48.3,30.35,NNE,23,1.1,1.1,65,0.00,,,0.30,WUHU216HW,2013-05-04 19:05:00,
2013-05-04 14:30:00,61.6,48.9,30.35,ENE,68,1.1,1.1,63,0.00,,,0.30,WUHU216HW,2013-05-04 19:30:00,
2013-05-04 14:35:00,61.6,48.9,30.35,ENE,68,1.1,1.1,63,0.00,,,0.30,WUHU216HW,2013-05-04 19:35:00,
2013-05-04 15:00:00,63.0,49.0,30.34,North,0,1.1,1.1,60,0.00,,,0.30,WUHU216HW,2013-05-04 20:00:00,
2013-05-04 15:05:00,63.0,49.0,30.34,North,0,1.1,1.1,60,0.00,,,0.30,WUHU216HW,2013-05-04 20:05:00,
2013-05-04 15:30:00,64.1,49.0,30.33,NE,45,2.0,2.0,58,0.00,,,0.30,WUHU216HW,2013-05-04 20:30:00,
2013-05-04 15:35:00,64.1,49.0,30.33,NE,45,2.0,2.0,58,0.00,,,0.30,WUHU216HW,2013-05-04 20:35:00,
2013-05-04 16:00:00,65.9,49.2,30.32,NNW,338,1.6,1.6,55,0.00,,,0.30,WUHU216HW,2013-05-04 21:00:00,
2013-05-04 16:05:00,65.9,49.2,30.32,NNW,338,1.6,1.6,55,0.00,,,0.30,WUHU216HW,2013-05-04 21:05:00,
2013-05-04 16:30:00,66.6,49.4,30.32,NNE,23,1.3,1.3,54,0.00,,,0.30,WUHU216HW,2013-05-04 21:30:00,
2013-05-04 16:35:00,66.6,49.4,30.32,NNE,23,1.3,1.3,54,0.00,,,0.30,WUHU216HW,2013-05-04 21:35:00,
2013-05-04 17:00:00,65.7,47.6,30.32,NW,315,1.6,1.6,52,0.00,,,0.30,WUHU216HW,2013-05-04 22:00:00,
2013-05-04 17:05:00,65.7,47.6,30.32,NW,315,1.6,1.6,52,0.00,,,0.30,WUHU216HW,2013-05-04 22:05:00,
2013-05-04 17:30:00,64.4,47.4,30.32,NNW,338,0.4,0.4,54,0.00,,,0.30,WUHU216HW,2013-05-04 22:30:00,
2013-05-04 17:35:00,64.4,47.4,30.32,NNW,338,0.4,0.4,54,0.00,,,0.30,WUHU216HW,2013-05-04 22:35:00,
2013-05-04 18:00:00,62.3,46.4,30.33,NNE,23,0.7,0.7,56,0.00,,,0.30,WUHU216HW,2013-05-04 23:00:00,
2013-05-04 18:05:00,62.3,46.4,30.33,NNE,23,0.7,0.7,56,0.00,,,0.30,WUHU216HW,2013-05-04 23:05:00,
2013-05-04 18:30:00,59.9,45.1,30.34,North,0,2.5,2.5,58,0.00,,,0.30,WUHU216HW,2013-05-04 23:30:00,
2013-05-04 18:35:00,59.9,45.1,30.34,North,0,2.5,2.5,58,0.00,,,0.30,WUHU216HW,2013-05-04 23:35:00,
2013-05-04 19:00:00,58.0,43.7,30.35,NE,45,2.0,2.0,59,0.00,,,0.30,WUHU216HW,2013-05-05 00:00:00,
2013-05-04 19:05:00,58.0,43.7,30.35,NE,45,2.0,2.0,59,0.00,,,0.30,WUHU216HW,2013-05-05 00:05:00,
2013-05-04 19:30:00,55.8,42.9,30.36,North,0,1.6,1.6,62,0.00,,,0.30,WUHU216HW,2013-05-05 00:30:00,
2013-05-04 19:35:00,55.8,42.9,30.36,North,0,1.6,1.6,62,0.00,,,0.30,WUHU216HW,2013-05-05 00:35:00,
2013-05-04 20:00:00,53.6,42.1,30.37,North,0,1.6,1.6,65,0.00,,,0.30,WUHU216HW,2013-05-05 01:00:00,
2013-05-04 20:05:00,53.6,42.1,30.37,North,0,1.6,1.6,65,0.00,,,0.30,WUHU216HW,2013-05-05 01:05:00,
2013-05-04 20:30:00,51.5,41.7,30.38,North,0,1.3,1.3,69,0.00,,,0.30,WUHU216HW,2013-05-05 01:30:00,
2013-05-04 20:35:00,51.5,41.7,30.38,North,0,1.3,1.3,69,0.00,,,0.30,WUHU216HW,2013-05-05 01:35:00,
2013-05-04 21:00:00,50.4,41.4,30.38,NE,45,1.3,1.3,71,0.00,,,0.30,WUHU216HW,2013-05-05 02:00:00,
2013-05-04 21:05:00,50.4,41.4,30.38,NE,45,1.3,1.3,71,0.00,,,0.30,WUHU216HW,2013-05-05 02:05:00,
2013-05-04 21:30:00,49.3,40.7,30.39,North,0,1.1,1.1,72,0.00,,,0.30,WUHU216HW,2013-05-05 02:30:00,
2013-05-04 21:35:00,49.3,40.7,30.39,North,0,1.1,1.1,72,0.00,,,0.30,WUHU216HW,2013-05-05 02:35:00,
2013-05-04 22:00:00,48.2,40.2,30.39,ENE,68,0.9,0.9,74,0.00,,,0.30,WUHU216HW,2013-05-05 03:00:00,
2013-05-04 22:05:00,48.2,40.2,30.39,ENE,68,0.9,0.9,74,0.00,,,0.30,WUHU216HW,2013-05-05 03:05:00,
2013-05-04 22:10:00,48.2,40.2,30.39,ENE,68,0.9,0.9,74,0.00,,,0.30,WUHU216HW,2013-05-05 03:10:00,
2013-05-04 22:30:00,46.3,39.5,30.39,ENE,68,1.8,1.8,77,0.00,,,0.30,WUHU216HW,2013-05-05 03:30:00,
2013-05-04 22:35:00,46.3,39.5,30.39,ENE,68,1.8,1.8,77,0.00,,,0.30,WUHU216HW,2013-05-05 03:35:00,
2013-05-04 23:00:00,44.6,37.9,30.39,NNE,23,2.5,2.5,77,0.00,,,0.30,WUHU216HW,2013-05-05 04:00:00,
2013-05-04 23:01:00,44.6,37.9,30.39,NNE,23,2.2,2.5,77,0.00,,,0.30,WUHU216HW,2013-05-05 04:01:00,
2013-05-04 23:06:00,44.6,37.9,30.39,NNE,23,2.2,2.5,77,0.00,,,0.30,WUHU216HW,2013-05-05 04:06:00,
2013-05-04 23:30:00,43.6,36.8,30.40,North,0,1.1,1.1,77,0.00,,,0.30,WUHU216HW,2013-05-05 04:30:00,
2013-05-04 23:35:00,43.6,36.8,30.40,North,0,1.1,1.1,77,0.00,,,0.30,WUHU216HW,2013-05-05 04:35:00,